Time;durP1;ratioP1;P1;durP2;ratioP2;P2;SDS_P1;SDS_P2;PMS_P1;PMS_P2;Temp;Humidity;BMP_temperature;BMP_pressure;BME280_temperature;BME280_humidity;BME280_pressure;Samples;Min_cycle;Max_cycle;Signal;HPM_P1;HPM_P2
2022/06/10 00:00:51;;;;;;;3.10;0.20;;;22.40;47.70;;;;;;6212404;23;20039;-74
2022/06/10 00:03:18;;;;;;;0.10;0.10;;;22.40;47.60;;;;;;6213933;23;20436;-74
2022/06/10 00:05:47;;;;;;;1.75;0.10;;;22.40;46.80;;;;;;6214396;23;20043;-74
2022/06/10 00:08:21;;;;;;;0.30;0.30;;;22.40;47.30;;;;;;6214306;23;20083;-74
2022/06/10 00:10:49;;;;;;;1.23;0.22;;;22.50;47.30;;;;;;6214213;23;20380;-74
2022/06/10 00:13:16;;;;;;;0.20;0.20;;;22.50;47.00;;;;;;6214306;23;20005;-74
2022/06/10 00:15:43;;;;;;;1.83;0.32;;;22.40;47.00;;;;;;6214167;23;20035;-74
2022/06/10 00:18:09;;;;;;;1.30;0.82;;;22.40;47.00;;;;;;6212530;23;20009;-74
2022/06/10 00:20:35;;;;;;;2.35;0.10;;;22.50;46.80;;;;;;6212558;23;20005;-74
2022/06/10 00:23:01;;;;;;;0.40;0.30;;;22.50;47.00;;;;;;6212658;23;20005;-74
2022/06/10 00:25:28;;;;;;;0.10;0.10;;;22.50;46.30;;;;;;6214135;23;20332;-74
2022/06/10 00:27:54;;;;;;;0.30;0.30;;;22.50;47.30;;;;;;6214076;23;20071;-74
2022/06/10 00:30:24;;;;;;;0.88;0.73;;;22.50;46.80;;;;;;6213995;23;20503;-74
2022/06/10 00:32:51;;;;;;;0.13;0.13;;;22.50;46.60;;;;;;6214095;23;20008;-74
2022/06/10 00:35:17;;;;;;;0.38;0.30;;;22.50;46.80;;;;;;6212444;23;20008;-74
2022/06/10 00:37:43;;;;;;;4.78;0.38;;;22.40;46.50;;;;;;6212382;23;20000;-74
2022/06/10 00:40:18;;;;;;;2.35;0.65;;;22.50;45.90;;;;;;6213780;23;19996;-74
2022/06/10 00:42:44;;;;;;;0.30;0.20;;;22.40;46.20;;;;;;6212340;23;20336;-74
2022/06/10 00:45:47;;;;;;;0.20;0.20;;;22.50;46.00;;;;;;6214036;23;20001;-74
2022/06/10 00:48:17;;;;;;;0.52;0.40;;;22.50;46.60;;;;;;6213751;23;20004;-74
2022/06/10 00:50:44;;;;;;;0.40;0.40;;;22.50;46.80;;;;;;6213824;23;20012;-74
2022/06/10 00:53:14;;;;;;;0.30;0.25;;;22.50;47.10;;;;;;6213815;23;20032;-74
2022/06/10 00:55:42;;;;;;;0.68;0.47;;;22.40;47.90;;;;;;6213724;23;20004;-74
2022/06/10 00:58:22;;;;;;;1.88;0.20;;;22.40;47.70;;;;;;6213828;23;19997;-74
2022/06/10 01:00:48;;;;;;;0.28;0.28;;;22.40;47.10;;;;;;6213545;23;20088;-74
2022/06/10 01:03:14;;;;;;;0.10;0.10;;;22.40;46.80;;;;;;6213770;23;20020;-74
2022/06/10 01:05:40;;;;;;;0.20;0.20;;;22.40;47.30;;;;;;6213881;23;20368;-74
2022/06/10 01:08:13;;;;;;;0.63;0.20;;;22.40;46.80;;;;;;6213637;23;20203;-74
2022/06/10 01:11:03;;;;;;;0.50;0.47;;;22.40;47.00;;;;;;6213597;23;20004;-74
2022/06/10 01:13:45;;;;;;;1.55;0.28;;;22.40;47.30;;;;;;6212042;23;20443;-74
2022/06/10 01:16:47;;;;;;;3.78;0.38;;;22.40;46.90;;;;;;6213565;23;20075;-74
2022/06/10 01:19:49;;;;;;;2.00;0.40;;;22.40;47.00;;;;;;6209077;23;20028;-74
2022/06/10 01:22:43;;;;;;;0.95;0.20;;;22.40;47.70;;;;;;6213573;23;20008;-74
2022/06/10 01:25:45;;;;;;;0.40;0.40;;;22.40;46.90;;;;;;6213604;23;20429;-74
2022/06/10 01:28:23;;;;;;;1.55;0.17;;;22.40;46.90;;;;;;6213544;23;20127;-74
2022/06/10 01:31:10;;;;;;;0.30;0.30;;;22.40;47.20;;;;;;6213542;23;20011;-74
2022/06/10 01:33:47;;;;;;;1.75;0.20;;;22.40;46.70;;;;;;6213651;23;20080;-74
2022/06/10 01:36:16;;;;;;;0.45;0.30;;;22.40;46.20;;;;;;6213427;23;20007;-74
2022/06/10 01:39:19;;;;;;;0.15;0.15;;;22.40;46.50;;;;;;6212066;23;20143;-74
2022/06/10 01:41:52;;;;;;;3.30;0.30;;;22.40;46.20;;;;;;6213497;23;20365;-74
2022/06/10 01:44:35;;;;;;;1.10;0.47;;;22.40;46.40;;;;;;6211867;23;20000;-74
2022/06/10 01:47:20;;;;;;;0.30;0.30;;;22.50;45.90;;;;;;6213675;23;20333;-74
2022/06/10 01:50:01;;;;;;;1.20;0.25;;;22.50;47.10;;;;;;6213543;23;20083;-74
2022/06/10 01:52:33;;;;;;;0.63;0.60;;;22.40;46.10;;;;;;6212018;23;20009;-74
2022/06/10 01:55:20;;;;;;;0.28;0.28;;;22.50;47.20;;;;;;6213481;23;20024;-74
2022/06/10 01:58:08;;;;;;;0.20;0.20;;;22.50;46.40;;;;;;6211477;23;20332;-74
2022/06/10 02:00:38;;;;;;;0.20;0.20;;;22.40;46.60;;;;;;6213323;23;20001;-74
2022/06/10 02:03:04;;;;;;;1.15;0.50;;;22.40;47.10;;;;;;6211980;23;20328;-74
2022/06/10 02:05:36;;;;;;;1.35;0.40;;;22.40;46.90;;;;;;6213524;23;20001;-74
2022/06/10 02:08:05;;;;;;;;;;;22.40;46.40;;;;;;6213865;23;20013;-74
2022/06/10 02:10:41;;;;;;;0.10;0.10;;;22.40;47.20;;;;;;6213285;23;19914;-74
2022/06/10 02:13:13;;;;;;;0.20;0.20;;;22.30;47.80;;;;;;6213522;23;20452;-74
2022/06/10 02:15:52;;;;;;;4.22;0.40;;;22.30;47.90;;;;;;6213310;23;20004;-74
2022/06/10 02:18:35;;;;;;;0.55;0.40;;;22.30;47.50;;;;;;6213436;23;20008;-74
2022/06/10 02:21:06;;;;;;;0.30;0.30;;;22.20;47.70;;;;;;6213450;23;20452;-74
2022/06/10 02:23:36;;;;;;;2.45;0.20;;;22.20;48.30;;;;;;6212960;23;20435;-74
2022/06/10 02:26:05;;;;;;;0.22;0.17;;;22.20;48.10;;;;;;6213779;23;20008;-74
2022/06/10 02:28:36;;;;;;;0.20;0.20;;;22.20;48.00;;;;;;6213527;23;20008;-74
2022/06/10 02:31:23;;;;;;;0.20;0.20;;;22.20;48.10;;;;;;6215150;23;20000;-74
2022/06/10 02:33:49;;;;;;;0.43;0.43;;;22.20;48.00;;;;;;6215415;23;20005;-74
2022/06/10 02:36:36;;;;;;;0.47;0.30;;;22.20;47.50;;;;;;6213639;23;20008;-74
2022/06/10 02:39:28;;;;;;;4.22;0.40;;;22.30;47.30;;;;;;6215065;23;20005;-74
2022/06/10 02:42:01;;;;;;;0.70;0.70;;;22.30;47.20;;;;;;6215217;23;20329;-74
2022/06/10 02:44:48;;;;;;;0.50;0.50;;;22.30;47.20;;;;;;6215134;23;20421;-73
2022/06/10 02:47:57;;;;;;;2.15;0.30;;;22.40;47.40;;;;;;6215121;23;20001;-74
2022/06/10 02:50:23;;;;;;;0.35;0.30;;;22.30;48.10;;;;;;6204163;23;20004;-74
2022/06/10 02:52:49;;;;;;;0.20;0.20;;;22.30;49.00;;;;;;6214860;23;20001;-74
2022/06/10 02:55:18;;;;;;;0.55;0.30;;;22.30;48.20;;;;;;6214910;23;20421;-74
2022/06/10 03:03:50;;;;;;;0.40;0.40;;;22.30;48.10;;;;;;6214935;23;20015;-74
2022/06/10 03:06:36;;;;;;;1.45;0.30;;;22.30;47.50;;;;;;6214967;23;20004;-74
2022/06/10 03:09:21;;;;;;;0.43;0.17;;;22.20;48.30;;;;;;6214698;23;20373;-74
2022/06/10 03:11:55;;;;;;;0.52;0.50;;;22.30;47.60;;;;;;6213306;23;20090;-74
2022/06/10 03:14:30;;;;;;;0.40;0.40;;;22.30;47.50;;;;;;6215118;23;20083;-74
2022/06/10 03:17:17;;;;;;;0.20;0.20;;;22.30;47.90;;;;;;6214709;23;20071;-74
2022/06/10 03:20:01;;;;;;;1.33;0.30;;;22.20;47.50;;;;;;6214522;23;20036;-74
2022/06/10 03:22:35;;;;;;;0.35;0.30;;;22.30;47.50;;;;;;6214943;23;20055;-74
2022/06/10 03:25:23;;;;;;;0.30;0.30;;;22.40;47.10;;;;;;6214779;23;20394;-74
2022/06/10 03:28:12;;;;;;;0.60;0.60;;;22.40;46.70;;;;;;6214636;23;20079;-74
2022/06/10 03:30:49;;;;;;;0.20;0.20;;;22.30;47.00;;;;;;6200562;23;20012;-74
2022/06/10 03:33:25;;;;;;;0.32;0.32;;;22.30;47.80;;;;;;6214715;23;19992;-74
2022/06/10 03:36:01;;;;;;;0.40;0.30;;;22.20;47.90;;;;;;6214641;23;20016;-74
2022/06/10 03:38:29;;;;;;;0.50;0.50;;;22.30;47.30;;;;;;6214816;23;20329;-74
2022/06/10 03:40:58;;;;;;;0.70;0.70;;;22.20;47.30;;;;;;6214591;23;20084;-74
2022/06/10 03:43:25;;;;;;;0.15;0.13;;;22.20;47.60;;;;;;6214608;23;20080;-74
2022/06/10 03:45:57;;;;;;;2.17;0.60;;;22.20;47.80;;;;;;6214656;23;20004;-74
2022/06/10 03:48:24;;;;;;;0.20;0.13;;;22.10;47.80;;;;;;6214556;23;20000;-74
2022/06/10 03:50:51;;;;;;;0.73;0.50;;;22.10;47.40;;;;;;6214474;23;20087;-74
2022/06/10 03:53:20;;;;;;;1.95;0.43;;;22.10;48.10;;;;;;6214396;23;20397;-74
2022/06/10 03:55:46;;;;;;;0.47;0.30;;;22.20;47.10;;;;;;6214369;23;20145;-74
2022/06/10 03:58:12;;;;;;;0.47;0.32;;;22.10;47.30;;;;;;6212896;23;20187;-74
2022/06/10 04:00:38;;;;;;;0.30;0.30;;;22.10;48.20;;;;;;6214148;23;20429;-74
2022/06/10 04:03:04;;;;;;;0.80;0.80;;;22.10;47.80;;;;;;6212426;23;20489;-74
2022/06/10 04:05:30;;;;;;;0.98;0.25;;;22.10;47.80;;;;;;6214420;23;20015;-74
2022/06/10 04:07:56;;;;;;;0.35;0.35;;;22.10;47.80;;;;;;6214205;23;20001;-74
2022/06/10 04:10:25;;;;;;;0.63;0.35;;;22.10;48.90;;;;;;6214055;23;20008;-74
2022/06/10 04:12:51;;;;;;;0.38;0.32;;;22.00;48.70;;;;;;6214581;23;20314;-74
2022/06/10 04:15:17;;;;;;;2.67;0.60;;;22.10;48.10;;;;;;6212640;23;20004;-74
2022/06/10 04:17:49;;;;;;;0.40;0.32;;;22.10;48.60;;;;;;6212585;23;20023;-74
2022/06/10 04:20:27;;;;;;;;;;;22.10;48.10;;;;;;6213246;23;20322;-74
2022/06/10 04:22:53;;;;;;;0.65;0.60;;;22.10;49.20;;;;;;6212800;23;19904;-74
2022/06/10 04:25:19;;;;;;;0.40;0.35;;;22.10;48.60;;;;;;6212858;23;20004;-74
2022/06/10 04:27:45;;;;;;;0.30;0.30;;;22.10;48.50;;;;;;6212618;23;20087;-74
2022/06/10 04:30:28;;;;;;;0.28;0.28;;;22.10;48.60;;;;;;6212782;23;20433;-74
2022/06/10 04:32:55;;;;;;;1.42;0.60;;;22.10;49.10;;;;;;6213118;23;20028;-74
2022/06/10 04:35:21;;;;;;;0.50;0.35;;;22.20;49.20;;;;;;6212703;23;20421;-74
2022/06/10 04:37:48;;;;;;;0.70;0.40;;;22.20;49.00;;;;;;6211344;23;20564;-73
2022/06/10 04:40:16;;;;;;;0.90;0.30;;;22.20;48.60;;;;;;6211473;23;20044;-74
2022/06/10 04:42:44;;;;;;;0.40;0.40;;;22.20;49.30;;;;;;6211617;23;20007;-73
2022/06/10 04:45:10;;;;;;;0.40;0.40;;;22.20;50.20;;;;;;6211085;23;20311;-74
2022/06/10 04:47:36;;;;;;;0.30;0.30;;;22.20;49.40;;;;;;6211354;23;20083;-74
2022/06/10 04:50:03;;;;;;;0.57;0.57;;;22.20;49.20;;;;;;6211423;23;20032;-74
2022/06/10 04:52:28;;;;;;;0.52;0.40;;;22.30;49.60;;;;;;6211379;23;20031;-74
2022/06/10 04:54:54;;;;;;;0.28;0.28;;;22.30;49.70;;;;;;6211299;23;20000;-74
2022/06/10 04:57:20;;;;;;;1.20;0.40;;;22.30;49.20;;;;;;6211395;23;20012;-74
2022/06/10 04:59:47;;;;;;;0.40;0.38;;;22.40;48.90;;;;;;6209676;23;20333;-74
2022/06/10 05:02:13;;;;;;;0.30;0.30;;;22.30;49.80;;;;;;6211745;23;20007;-74
2022/06/10 05:04:39;;;;;;;0.52;0.20;;;22.40;49.70;;;;;;6211609;23;20007;-74
2022/06/10 05:07:05;;;;;;;3.33;0.35;;;22.30;49.40;;;;;;6211770;23;20028;-74
2022/06/10 05:09:31;;;;;;;1.02;0.28;;;22.30;50.30;;;;;;6212350;23;20001;-74
2022/06/10 05:11:57;;;;;;;0.63;0.32;;;22.40;49.70;;;;;;6212430;23;20005;-74
2022/06/10 05:14:22;;;;;;;0.10;0.10;;;22.30;49.40;;;;;;6212443;23;20023;-74
2022/06/10 05:16:48;;;;;;;0.43;0.43;;;22.30;48.80;;;;;;6210765;23;20005;-74
2022/06/10 05:19:14;;;;;;;2.45;0.60;;;22.30;48.80;;;;;;6162558;23;1140277;-74
2022/06/10 05:21:40;;;;;;;1.17;0.40;;;22.30;49.20;;;;;;6213606;23;20007;-74
2022/06/10 05:24:06;;;;;;;0.30;0.30;;;22.30;49.60;;;;;;6212021;23;20090;-74
2022/06/10 05:26:32;;;;;;;0.40;0.40;;;22.30;49.40;;;;;;6212083;23;20011;-74
2022/06/10 05:28:59;;;;;;;0.30;0.30;;;22.30;49.20;;;;;;6213428;23;20376;-74
2022/06/10 05:31:25;;;;;;;0.22;0.22;;;22.40;49.20;;;;;;6213624;23;20076;-74
2022/06/10 05:36:35;;;;;;;0.30;0.30;;;22.40;50.40;;;;;;6213329;23;20096;-74
2022/06/10 05:39:02;;;;;;;0.30;0.30;;;22.40;49.70;;;;;;6212656;23;20024;-73
2022/06/10 05:44:12;;;;;;;0.50;0.47;;;22.40;50.60;;;;;;6211291;23;20015;-74
2022/06/10 05:46:37;;;;;;;0.30;0.28;;;22.50;49.80;;;;;;6211774;23;20332;-74
2022/06/10 05:49:04;;;;;;;0.30;0.30;;;22.50;49.00;;;;;;6211905;23;20005;-74
2022/06/10 05:51:29;;;;;;;0.30;0.30;;;22.60;49.20;;;;;;6211067;23;20004;-74
2022/06/10 05:53:55;;;;;;;0.75;0.50;;;22.60;49.40;;;;;;6213322;23;20007;-74
2022/06/10 05:56:21;;;;;;;1.08;0.32;;;22.60;49.30;;;;;;6212105;23;20009;-74
2022/06/10 05:58:47;;;;;;;0.30;0.30;;;22.60;49.70;;;;;;6213306;23;20039;-74
2022/06/10 06:01:12;;;;;;;0.17;0.17;;;22.70;49.40;;;;;;6214107;23;20325;-74
2022/06/10 06:03:38;;;;;;;0.20;0.20;;;22.70;49.20;;;;;;6213843;23;20011;-74
2022/06/10 06:06:04;;;;;;;0.30;0.30;;;22.70;49.60;;;;;;6215518;23;20000;-74
2022/06/10 06:08:30;;;;;;;0.50;0.25;;;22.70;49.20;;;;;;6215520;23;20000;-74
2022/06/10 06:10:59;;;;;;;0.15;0.15;;;22.80;48.80;;;;;;6213516;23;20009;-74
2022/06/10 06:13:24;;;;;;;0.45;0.45;;;22.80;48.40;;;;;;6215352;23;20469;-74
2022/06/10 06:15:50;;;;;;;0.73;0.40;;;22.80;49.20;;;;;;6215038;23;20032;-74
2022/06/10 06:18:16;;;;;;;0.63;0.45;;;22.90;48.90;;;;;;6214899;23;20425;-74
2022/06/10 06:20:42;;;;;;;0.47;0.20;;;22.90;49.90;;;;;;6215317;23;20088;-74
2022/06/10 06:23:08;;;;;;;0.40;0.20;;;22.90;49.30;;;;;;6215112;23;20009;-74
2022/06/10 06:25:34;;;;;;;2.03;0.50;;;23.00;49.10;;;;;;6213530;23;20005;-75
2022/06/10 06:27:59;;;;;;;0.30;0.30;;;23.00;50.00;;;;;;6215300;23;20000;-74
2022/06/10 06:30:32;;;;;;;1.35;0.20;;;23.10;48.80;;;;;;6215290;23;20425;-74
2022/06/10 06:33:00;;;;;;;0.38;0.10;;;23.10;49.50;;;;;;6215231;23;20011;-74
2022/06/10 06:35:26;;;;;;;1.50;0.30;;;23.20;49.00;;;;;;6215005;23;20040;-74
2022/06/10 06:37:56;;;;;;;0.28;0.20;;;23.20;49.80;;;;;;6215119;23;20008;-74
2022/06/10 06:40:22;;;;;;;0.20;0.20;;;23.20;50.30;;;;;;6214898;23;20001;-74
2022/06/10 06:42:48;;;;;;;0.30;0.20;;;23.20;48.90;;;;;;6215120;23;20528;-74
2022/06/10 06:45:22;;;;;;;2.97;0.60;;;23.20;49.70;;;;;;6214944;23;20004;-74
2022/06/10 06:47:48;;;;;;;2.45;0.20;;;23.10;49.70;;;;;;6215180;23;20031;-74
2022/06/10 06:50:16;;;;;;;0.20;0.20;;;23.10;49.50;;;;;;6214769;23;20024;-74
2022/06/10 06:52:42;;;;;;;0.30;0.30;;;23.20;49.90;;;;;;6215012;23;20322;-74
2022/06/10 06:55:09;;;;;;;0.10;0.10;;;23.20;49.10;;;;;;6215168;23;20031;-74
2022/06/10 06:57:35;;;;;;;0.20;0.20;;;23.30;49.70;;;;;;6214997;23;20540;-74
2022/06/10 07:00:06;;;;;;;0.30;0.30;;;23.20;49.30;;;;;;6214792;23;20001;-74
2022/06/10 07:02:36;;;;;;;0.15;0.10;;;23.20;48.90;;;;;;6215089;23;20023;-75
2022/06/10 07:05:03;;;;;;;0.10;0.10;;;23.30;49.30;;;;;;6214840;23;20004;-74
2022/06/10 07:07:29;;;;;;;2.50;0.20;;;23.30;49.40;;;;;;6215127;23;20000;-74
2022/06/10 07:09:59;;;;;;;0.20;0.20;;;23.30;48.40;;;;;;6214479;23;20047;-74
2022/06/10 07:12:25;;;;;;;1.65;0.10;;;23.40;49.90;;;;;;6213174;23;20000;-74
2022/06/10 07:14:51;;;;;;;0.30;0.30;;;23.40;49.30;;;;;;6215031;23;20000;-74
2022/06/10 07:17:17;;;;;;;0.30;0.30;;;23.40;49.80;;;;;;6214981;23;20475;-74
2022/06/10 07:19:48;;;;;;;0.30;0.30;;;23.30;49.40;;;;;;6214404;23;20032;-74
2022/06/10 07:22:15;;;;;;;0.20;0.15;;;23.30;49.90;;;;;;6214734;23;20083;-74
2022/06/10 07:24:42;;;;;;;0.10;0.10;;;23.50;50.80;;;;;;6213137;23;20001;-74
2022/06/10 07:27:08;;;;;;;0.30;0.30;;;23.50;49.50;;;;;;6213327;23;20005;-74
2022/06/10 07:29:34;;;;;;;0.20;0.20;;;23.50;49.20;;;;;;6214374;23;20005;-75
2022/06/10 07:32:00;;;;;;;0.70;0.20;;;23.60;49.40;;;;;;6212485;23;20035;-75
2022/06/10 07:34:26;;;;;;;0.25;0.25;;;23.50;49.50;;;;;;6215318;23;19997;-74
2022/06/10 07:36:51;;;;;;;0.40;0.10;;;23.50;48.90;;;;;;6215333;23;20444;-74
2022/06/10 07:39:17;;;;;;;0.17;0.15;;;23.40;48.80;;;;;;6215841;23;20001;-77
2022/06/10 07:42:00;;;;;;;0.20;0.20;;;23.40;49.10;;;;;;6214419;23;20008;-77
2022/06/10 07:44:31;;;;;;;0.40;0.10;;;23.40;49.20;;;;;;6212864;23;20011;-77
2022/06/10 07:46:59;;;;;;;0.15;0.13;;;23.50;51.50;;;;;;6213048;23;20329;-78
2022/06/10 07:49:25;;;;;;;2.90;0.20;;;23.70;51.40;;;;;;6212872;23;20008;-78
2022/06/10 07:51:51;;;;;;;0.88;0.47;;;23.80;51.50;;;;;;6214479;23;20333;-78
2022/06/10 07:54:17;;;;;;;0.85;0.20;;;23.90;52.10;;;;;;6214544;23;20000;-77
2022/06/10 07:56:43;;;;;;;0.70;0.20;;;24.00;50.80;;;;;;6214418;23;20424;-77
2022/06/10 07:59:09;;;;;;;0.20;0.20;;;24.10;52.90;;;;;;6214225;23;20373;-78
2022/06/10 08:01:35;;;;;;;0.10;0.10;;;24.20;52.00;;;;;;6214418;23;20477;-77
2022/06/10 08:04:01;;;;;;;0.90;0.10;;;24.30;48.70;;;;;;6212804;23;20001;-77
2022/06/10 08:06:29;;;;;;;0.28;0.17;;;24.40;49.30;;;;;;6214164;23;20005;-77
2022/06/10 08:08:55;;;;;;;0.20;0.20;;;24.40;48.60;;;;;;6214048;23;20001;-78
2022/06/10 08:11:21;;;;;;;0.25;0.10;;;24.50;51.70;;;;;;6213958;23;20334;-78
2022/06/10 08:13:47;;;;;;;0.35;0.20;;;24.60;49.70;;;;;;6214462;23;20007;-77
2022/06/10 08:16:14;;;;;;;1.23;0.10;;;24.60;48.10;;;;;;6214341;23;20036;-77
2022/06/10 08:18:41;;;;;;;0.32;0.30;;;24.60;49.00;;;;;;6212517;23;20402;-77
2022/06/10 08:23:51;;;;;;;0.10;0.10;;;24.70;49.90;;;;;;6214299;23;20066;-77
2022/06/10 08:26:20;;;;;;;0.20;0.10;;;24.80;49.60;;;;;;6212648;23;20008;-77
2022/06/10 08:28:47;;;;;;;0.10;0.10;;;24.80;48.20;;;;;;6214282;23;20011;-77
2022/06/10 08:31:13;;;;;;;0.10;0.10;;;24.80;48.60;;;;;;6214306;23;19992;-77
2022/06/10 08:33:39;;;;;;;1.45;0.17;;;24.80;47.70;;;;;;6214163;23;20025;-77
2022/06/10 08:36:06;;;;;;;0.10;0.10;;;24.90;48.90;;;;;;6214001;23;20455;-77
2022/06/10 08:38:32;;;;;;;1.65;0.20;;;24.90;49.10;;;;;;6214046;23;20024;-77
2022/06/10 08:41:24;;;;;;;0.20;0.20;;;25.00;48.90;;;;;;6214105;23;19996;-77
2022/06/10 08:43:58;;;;;;;0.57;0.20;;;25.00;49.80;;;;;;6214037;23;20047;-78
2022/06/10 08:46:45;;;;;;;0.03;0.03;;;25.10;48.60;;;;;;6213966;23;20500;-77
2022/06/10 08:49:16;;;;;;;0.10;0.10;;;25.20;48.70;;;;;;6214039;23;20025;-78
2022/06/10 08:52:00;;;;;;;0.25;0.20;;;25.20;50.80;;;;;;6212399;23;20031;-77
2022/06/10 08:54:38;;;;;;;0.00;0.00;;;25.30;50.40;;;;;;6213807;23;20451;-77
2022/06/10 08:57:36;;;;;;;1.98;0.15;;;25.30;48.40;;;;;;6213807;23;20005;-77
2022/06/10 09:00:12;;;;;;;0.20;0.20;;;25.40;49.20;;;;;;6201644;23;20000;-77
2022/06/10 09:02:44;;;;;;;0.47;0.10;;;25.40;49.40;;;;;;6213820;23;20003;-78
2022/06/10 09:05:39;;;;;;;0.60;0.50;;;25.40;47.80;;;;;;6213873;23;20007;-78
2022/06/10 09:08:37;;;;;;;2.92;1.60;;;25.50;48.90;;;;;;6212249;23;20063;-77
2022/06/10 09:11:25;;;;;;;1.65;1.30;;;25.60;47.70;;;;;;6194949;23;20336;-77
2022/06/10 09:14:17;;;;;;;0.30;0.30;;;25.60;47.60;;;;;;6213830;23;19992;-77
2022/06/10 09:17:02;;;;;;;0.75;0.20;;;25.60;47.80;;;;;;6212025;23;20016;-77
2022/06/10 09:19:46;;;;;;;0.22;0.22;;;25.70;46.90;;;;;;6213360;23;20012;-77
2022/06/10 09:22:21;;;;;;;0.10;0.10;;;25.80;48.20;;;;;;6212159;23;20012;-77
2022/06/10 09:25:18;;;;;;;0.70;0.70;;;25.80;48.50;;;;;;6213901;23;20001;-77
2022/06/10 09:27:50;;;;;;;0.40;0.30;;;25.90;47.80;;;;;;6213883;23;19993;-77
2022/06/10 09:30:19;;;;;;;0.20;0.20;;;26.00;47.80;;;;;;6213572;23;20439;-77
2022/06/10 09:32:52;;;;;;;0.13;0.13;;;26.10;48.80;;;;;;6213430;23;20003;-77
2022/06/10 09:35:25;;;;;;;1.95;0.40;;;26.10;49.30;;;;;;6213582;23;20024;-77
2022/06/10 09:38:06;;;;;;;0.65;0.10;;;26.10;48.90;;;;;;6213584;23;20127;-77
2022/06/10 09:40:59;;;;;;;0.20;0.20;;;26.10;47.40;;;;;;6213570;23;20012;-77
2022/06/10 09:43:43;;;;;;;0.30;0.30;;;26.20;47.40;;;;;;6212157;23;20127;-78
2022/06/10 09:46:11;;;;;;;0.85;0.85;;;26.20;48.10;;;;;;6213465;23;20001;-77
2022/06/10 09:48:49;;;;;;;0.13;0.13;;;26.30;47.80;;;;;;6212036;23;20004;-77
2022/06/10 09:51:36;;;;;;;0.10;0.10;;;26.20;48.00;;;;;;6211980;23;20012;-77
2022/06/10 09:54:11;;;;;;;0.05;0.05;;;26.30;48.20;;;;;;6213798;23;20028;-77
2022/06/10 09:56:58;;;;;;;0.00;0.00;;;26.30;48.50;;;;;;6213519;23;20008;-77
2022/06/10 09:59:38;;;;;;;0.20;0.20;;;26.30;46.60;;;;;;6213516;23;20131;-77
2022/06/10 10:02:07;;;;;;;0.13;0.13;;;26.30;46.00;;;;;;6213441;23;19996;-77
2022/06/10 10:04:41;;;;;;;0.10;0.10;;;26.30;46.90;;;;;;6213514;23;20015;-77
2022/06/10 10:07:17;;;;;;;0.10;0.10;;;26.50;47.00;;;;;;6213473;23;20068;-77
2022/06/10 10:10:09;;;;;;;0.10;0.10;;;26.60;47.40;;;;;;6213070;23;20336;-77
2022/06/10 10:13:12;;;;;;;0.10;0.10;;;26.60;47.40;;;;;;6213248;23;20072;-77
2022/06/10 10:15:52;;;;;;;;;;;26.60;46.00;;;;;;6213845;23;20005;-77
2022/06/10 10:19:12;;;;;;;0.20;0.10;;;26.60;45.60;;;;;;6213238;23;19931;-77
2022/06/10 10:22:02;;;;;;;0.20;0.20;;;26.70;45.90;;;;;;6121506;23;20005;-77
2022/06/10 10:24:28;;;;;;;0.13;0.13;;;26.70;46.00;;;;;;6121561;23;20010;-77
2022/06/10 10:26:55;;;;;;;0.10;0.10;;;26.70;47.20;;;;;;6189738;23;20028;-77
2022/06/10 10:29:27;;;;;;;0.10;0.10;;;26.80;47.80;;;;;;6213379;23;20072;-77
2022/06/10 10:32:03;;;;;;;0.30;0.20;;;26.80;47.10;;;;;;6213481;23;20000;-78
2022/06/10 10:34:36;;;;;;;0.10;0.10;;;26.90;44.10;;;;;;6213304;23;19997;-77
2022/06/10 10:37:18;;;;;;;0.10;0.10;;;27.00;43.90;;;;;;6213350;23;20028;-78
2022/06/10 10:39:53;;;;;;;0.10;0.10;;;27.00;44.90;;;;;;6213344;23;19997;-77
2022/06/10 10:42:23;;;;;;;0.22;0.20;;;27.10;45.30;;;;;;6213381;23;20000;-77
2022/06/10 10:45:07;;;;;;;0.40;0.40;;;27.40;53.20;;;;;;6214707;23;20007;-77
2022/06/10 10:47:36;;;;;;;1.35;0.32;;;27.70;54.30;;;;;;6215160;23;19996;-78
2022/06/10 10:50:03;;;;;;;0.20;0.20;;;27.80;55.80;;;;;;6213420;23;20397;-78
2022/06/10 10:52:41;;;;;;;1.45;0.20;;;27.80;50.90;;;;;;6215051;23;19997;-78
2022/06/10 10:55:12;;;;;;;0.35;0.35;;;28.00;53.70;;;;;;6214926;23;20317;-78
2022/06/10 10:58:04;;;;;;;0.35;0.22;;;28.00;53.60;;;;;;6215024;23;20027;-77
2022/06/10 11:00:41;;;;;;;3.35;0.40;;;28.20;52.80;;;;;;6172341;23;20005;-77
2022/06/10 11:03:21;;;;;;;1.45;0.30;;;28.40;49.70;;;;;;6215132;23;20007;-77
2022/06/10 11:05:48;;;;;;;0.82;0.43;;;28.40;47.80;;;;;;6214982;23;20075;-77
2022/06/10 11:08:36;;;;;;;1.48;0.30;;;28.40;49.50;;;;;;6215115;23;20034;-77
2022/06/10 11:11:07;;;;;;;1.02;0.20;;;28.60;51.80;;;;;;6213356;23;20008;-77
2022/06/10 11:13:47;;;;;;;1.35;0.30;;;28.50;46.90;;;;;;6214903;23;20004;-78
2022/06/10 11:16:27;;;;;;;4.05;0.30;;;28.50;45.40;;;;;;6214725;23;20055;-77
2022/06/10 11:19:19;;;;;;;0.30;0.30;;;28.50;45.00;;;;;;6212890;23;20024;-77
2022/06/10 11:22:02;;;;;;;0.73;0.17;;;28.60;47.60;;;;;;6214984;23;20072;-77
2022/06/10 11:24:37;;;;;;;1.77;0.30;;;28.60;46.50;;;;;;6214878;23;20440;-77
2022/06/10 11:27:31;;;;;;;0.40;0.28;;;28.70;47.70;;;;;;6214614;23;20134;-78
2022/06/10 11:30:11;;;;;;;0.90;0.40;;;28.80;47.40;;;;;;6214580;23;20005;-77
2022/06/10 11:32:48;;;;;;;0.43;0.30;;;28.80;48.10;;;;;;6214634;23;20008;-77
2022/06/10 11:35:23;;;;;;;0.40;0.30;;;29.00;50.60;;;;;;6212780;23;20011;-78
2022/06/10 11:38:12;;;;;;;0.70;0.20;;;29.10;47.20;;;;;;6214923;23;19997;-77
2022/06/10 11:40:47;;;;;;;1.40;0.30;;;29.20;49.00;;;;;;6213963;23;20004;-78
2022/06/10 11:43:27;;;;;;;0.73;0.20;;;29.30;48.00;;;;;;6214361;23;20059;-78
2022/06/10 11:46:12;;;;;;;4.82;0.40;;;29.40;49.60;;;;;;6214019;23;20001;-77
2022/06/10 11:48:50;;;;;;;1.02;0.68;;;29.40;49.70;;;;;;6213810;23;20005;-77
2022/06/10 11:51:33;;;;;;;0.25;0.20;;;29.50;45.70;;;;;;6214367;23;20011;-77
2022/06/10 11:54:14;;;;;;;0.40;0.40;;;29.50;46.80;;;;;;6214730;23;20005;-77
2022/06/10 12:00:13;;;;;;;2.30;0.30;;;29.80;47.70;;;;;;6151794;23;20315;-78
2022/06/10 12:02:47;;;;;;;0.20;0.20;;;29.90;46.50;;;;;;6205132;23;20001;-78
2022/06/10 12:05:38;;;;;;;0.47;0.35;;;30.10;47.80;;;;;;6214353;23;20004;-77
2022/06/10 12:08:30;;;;;;;0.30;0.30;;;30.20;47.60;;;;;;6211414;23;20008;-77
2022/06/10 12:11:05;;;;;;;6.10;0.38;;;30.40;44.60;;;;;;6161941;23;20055;-77
2022/06/10 12:13:41;;;;;;;0.95;0.38;;;30.40;46.60;;;;;;6208401;23;20020;-77
2022/06/10 12:16:09;;;;;;;0.75;0.40;;;30.60;47.80;;;;;;6208407;23;20011;-77
2022/06/10 12:18:46;;;;;;;1.33;0.35;;;30.80;47.00;;;;;;6206813;23;20013;-77
2022/06/10 12:21:21;;;;;;;0.65;0.45;;;30.90;45.80;;;;;;6208853;23;20306;-77
2022/06/10 12:23:47;;;;;;;0.73;0.45;;;30.80;43.70;;;;;;6209057;23;20050;-77
2022/06/10 12:26:34;;;;;;;0.30;0.30;;;30.90;44.40;;;;;;6208488;23;20004;-78
2022/06/10 12:29:03;;;;;;;2.65;0.40;;;31.00;44.60;;;;;;6209326;23;20011;-77
2022/06/10 12:31:56;;;;;;;0.75;0.40;;;31.00;41.80;;;;;;6208648;23;20004;-77
2022/06/10 12:34:25;;;;;;;1.70;0.40;;;31.10;42.60;;;;;;6206960;23;20095;-77
2022/06/10 12:37:08;;;;;;;0.55;0.30;;;31.10;45.20;;;;;;6208865;23;20062;-78
2022/06/10 12:39:44;;;;;;;1.58;0.35;;;31.20;45.40;;;;;;6208844;23;20333;-77
2022/06/10 12:42:39;;;;;;;1.15;0.40;;;31.20;47.50;;;;;;6209563;23;20000;-78
2022/06/10 12:45:30;;;;;;;1.05;0.38;;;31.30;46.10;;;;;;6208063;23;20419;-77
2022/06/10 12:48:00;;;;;;;0.30;0.30;;;31.40;43.50;;;;;;6208786;23;20012;-78
2022/06/10 12:50:30;;;;;;;1.55;0.52;;;31.40;42.30;;;;;;6208658;23;20480;-77
2022/06/10 12:53:26;;;;;;;0.85;0.40;;;31.60;45.30;;;;;;6208560;23;20055;-78
2022/06/10 12:55:58;;;;;;;0.25;0.25;;;31.70;44.80;;;;;;6209225;23;20080;-77
2022/06/10 12:58:36;;;;;;;0.70;0.38;;;31.60;42.90;;;;;;6209294;23;20349;-77
2022/06/10 13:01:16;;;;;;;1.70;0.50;;;31.80;43.40;;;;;;6207636;23;20388;-78
2022/06/10 13:03:43;;;;;;;0.43;0.43;;;31.80;43.30;;;;;;6207558;23;20388;-78
2022/06/10 13:06:27;;;;;;;0.68;0.30;;;31.90;43.20;;;;;;6207887;23;20011;-77
2022/06/10 13:08:59;;;;;;;2.05;0.28;;;32.00;41.60;;;;;;6208245;23;20009;-78
2022/06/10 13:11:49;;;;;;;0.50;0.50;;;32.10;44.00;;;;;;6207775;23;20000;-78
2022/06/10 13:14:29;;;;;;;0.82;0.40;;;32.10;41.40;;;;;;6208882;23;20115;-78
2022/06/10 13:16:58;;;;;;;1.98;0.43;;;32.20;40.90;;;;;;6208543;23;20011;-78
2022/06/10 13:19:34;;;;;;;1.95;0.30;;;32.20;40.90;;;;;;6208142;23;20016;-78
2022/06/10 13:22:22;;;;;;;1.30;0.32;;;32.30;43.00;;;;;;6208529;23;20134;-78
2022/06/10 13:24:54;;;;;;;1.17;0.30;;;32.40;44.20;;;;;;6208655;23;20494;-78
2022/06/10 13:27:27;;;;;;;0.40;0.30;;;32.50;41.10;;;;;;6208610;23;20039;-78
2022/06/10 13:29:58;;;;;;;1.20;0.47;;;32.70;41.10;;;;;;6207996;23;20036;-78
2022/06/10 13:32:25;;;;;;;1.05;0.60;;;32.70;40.40;;;;;;6205751;23;20498;-78
2022/06/10 13:34:56;;;;;;;2.05;0.57;;;32.70;42.50;;;;;;6208642;23;20084;-78
2022/06/10 13:37:24;;;;;;;2.42;0.80;;;32.70;39.90;;;;;;6207038;23;20039;-78
2022/06/10 13:39:53;;;;;;;1.70;0.40;;;32.60;37.60;;;;;;6207789;23;20001;-78